createdAt,value
2023-05-15T00:00:01.902Z,4.80
2023-05-15T00:02:57.315Z,4.77
2023-05-15T00:05:41.548Z,4.90
2023-05-15T00:08:25.449Z,4.97
2023-05-15T00:11:10.764Z,5.30
2023-05-15T00:13:54.701Z,5.03
2023-05-15T00:16:38.513Z,5.10
2023-05-15T00:19:22.546Z,5.17
2023-05-15T00:22:06.822Z,5.03
2023-05-15T00:24:50.671Z,5.37
2023-05-15T00:27:36.233Z,5.07
2023-05-15T00:30:21.065Z,5.53
2023-05-15T00:33:05.169Z,4.93
2023-05-15T00:35:49.058Z,5.40
2023-05-15T00:38:34.587Z,4.93
2023-05-15T00:41:23.781Z,5.67
2023-05-15T00:44:11.151Z,4.50
2023-05-15T00:46:57.380Z,4.57
2023-05-15T00:49:42.212Z,4.43
2023-05-15T00:52:26.366Z,4.57
2023-05-15T00:55:10.652Z,4.40
2023-05-15T00:57:55.786Z,4.20
2023-05-15T01:00:41.345Z,3.70
2023-05-15T01:03:25.467Z,4.37
2023-05-15T01:06:09.380Z,4.00
2023-05-15T01:08:54.960Z,4.03
2023-05-15T01:11:40.540Z,4.03
2023-05-15T01:14:24.457Z,3.60
2023-05-15T01:17:10.039Z,3.67
2023-05-15T01:19:54.219Z,3.80
2023-05-15T01:22:53.233Z,3.50
2023-05-15T01:26:17.000Z,3.70
2023-05-15T01:29:06.029Z,3.67
2023-05-15T01:32:00.632Z,3.87
2023-05-15T01:34:49.726Z,3.50
2023-05-15T01:37:36.401Z,3.60
2023-05-15T01:40:23.865Z,3.37
2023-05-15T01:43:12.982Z,3.70
2023-05-15T01:46:00.548Z,4.20
2023-05-15T01:48:47.481Z,3.70
2023-05-15T01:51:33.189Z,4.00
2023-05-15T01:54:18.178Z,4.30
2023-05-15T01:57:02.554Z,3.87
2023-05-15T01:59:47.171Z,4.40
2023-05-15T02:02:33.034Z,4.47
2023-05-15T02:05:18.671Z,4.20
2023-05-15T02:08:05.697Z,4.97
2023-05-15T02:10:51.060Z,4.70
2023-05-15T02:13:38.240Z,4.53
2023-05-15T02:16:22.497Z,4.63
2023-05-15T02:19:08.221Z,4.80
2023-05-15T02:21:51.911Z,5.53
2023-05-15T02:24:35.832Z,5.73
2023-05-15T02:27:24.593Z,5.30
2023-05-15T02:30:18.945Z,5.73
2023-05-15T02:33:13.764Z,5.60
2023-05-15T02:36:03.214Z,4.87
2023-05-15T02:38:50.508Z,4.90
2023-05-15T02:41:39.375Z,5.23
2023-05-15T02:44:23.896Z,5.50
2023-05-15T02:47:08.916Z,5.40
2023-05-15T02:49:53.238Z,6.13
2023-05-15T02:52:38.428Z,5.40
2023-05-15T02:55:22.267Z,5.47
2023-05-15T02:58:06.621Z,5.57
2023-05-15T03:00:50.535Z,5.60
2023-05-15T03:03:35.032Z,5.20
2023-05-15T03:06:18.972Z,5.20
2023-05-15T03:09:04.188Z,5.43
2023-05-15T03:11:48.061Z,5.40
2023-05-15T03:14:31.898Z,5.07
2023-05-15T03:17:16.116Z,4.87
2023-05-15T03:20:00.620Z,4.27
2023-05-15T03:22:44.572Z,4.80
2023-05-15T03:25:29.850Z,4.63
2023-05-15T03:28:13.717Z,4.37
2023-05-15T03:30:57.628Z,4.70
2023-05-15T03:33:41.879Z,4.80
2023-05-15T03:36:25.693Z,4.73
2023-05-15T03:39:10.053Z,5.07
2023-05-15T03:41:58.877Z,4.60
2023-05-15T03:44:42.789Z,4.60
2023-05-15T03:47:26.747Z,4.27
2023-05-15T03:50:11.513Z,4.90
2023-05-15T03:52:55.557Z,4.13
2023-05-15T03:55:39.430Z,4.10
2023-05-15T03:58:26.782Z,4.27
2023-05-15T04:01:10.670Z,4.27
2023-05-15T04:03:54.464Z,4.03
2023-05-15T04:06:38.416Z,6.53
2023-05-15T04:09:22.203Z,5.63
2023-05-15T04:12:07.103Z,4.20
2023-05-15T04:14:52.368Z,4.27
2023-05-15T04:17:36.284Z,4.03
2023-05-15T04:20:22.446Z,4.10
2023-05-15T04:23:06.316Z,3.40
2023-05-15T04:25:50.280Z,18.87
2023-05-15T04:28:34.208Z,4.93
2023-05-15T04:31:19.907Z,4.97
2023-05-15T04:34:04.446Z,17.13
2023-05-15T04:36:49.006Z,13.27
2023-05-15T04:39:32.856Z,9.90
2023-05-15T04:42:16.730Z,8.33
2023-05-15T04:45:00.833Z,6.20
2023-05-15T04:47:46.996Z,7.77
2023-05-15T04:50:31.051Z,12.13
2023-05-15T04:53:15.269Z,4.90
2023-05-15T04:55:59.195Z,6.75
2023-05-15T04:58:42.905Z,7.30
2023-05-15T05:01:26.924Z,5.10
2023-05-15T05:04:12.213Z,3.95
2023-05-15T05:06:56.080Z,4.60
2023-05-15T05:09:40.864Z,4.17
2023-05-15T05:12:26.035Z,3.90
2023-05-15T05:15:14.430Z,4.32
2023-05-15T05:17:58.323Z,4.30
2023-05-15T05:20:43.652Z,3.88
2023-05-15T05:23:27.488Z,3.65
2023-05-15T05:26:11.519Z,3.78
2023-05-15T05:28:55.395Z,3.53
2023-05-15T05:31:39.511Z,3.63
2023-05-15T05:34:23.692Z,3.45
2023-05-15T05:37:08.959Z,4.57
2023-05-15T05:39:53.032Z,4.60
2023-05-15T05:42:36.806Z,3.40
2023-05-15T05:45:20.706Z,3.10
2023-05-15T05:48:04.633Z,2.70
2023-05-15T05:50:48.465Z,2.90
2023-05-15T05:53:33.711Z,3.05
2023-05-15T05:56:17.580Z,3.78
2023-05-15T05:59:02.106Z,2.97
2023-05-15T06:01:46.221Z,3.20
2023-05-15T06:04:30.410Z,2.88
2023-05-15T06:07:14.303Z,2.92
2023-05-15T06:09:59.558Z,2.72
2023-05-15T06:12:43.723Z,3.03
2023-05-15T06:15:27.864Z,2.90
2023-05-15T06:18:12.039Z,3.03
2023-05-15T06:20:56.179Z,2.85
2023-05-15T06:23:39.878Z,3.58
2023-05-15T06:26:25.825Z,3.10
2023-05-15T06:29:10.018Z,3.38
2023-05-15T06:31:53.914Z,3.20
2023-05-15T06:34:37.932Z,3.22
2023-05-15T06:37:21.979Z,3.80
2023-05-15T06:40:07.161Z,2.80
2023-05-15T06:42:52.673Z,3.13
2023-05-15T06:45:36.498Z,2.50
2023-05-15T06:48:20.696Z,2.80
2023-05-15T06:51:05.143Z,2.50
2023-05-15T06:53:48.946Z,2.83
2023-05-15T06:56:32.853Z,2.95
2023-05-15T06:59:18.368Z,2.97
2023-05-15T07:02:02.671Z,2.90
2023-05-15T07:04:47.048Z,3.17
2023-05-15T07:07:31.033Z,2.72
2023-05-15T07:10:15.186Z,3.03
2023-05-15T07:12:59.152Z,2.85
2023-05-15T07:15:44.600Z,2.95
2023-05-15T07:18:28.899Z,2.83
2023-05-15T07:21:12.925Z,2.60
2023-05-15T07:23:56.887Z,3.42
2023-05-15T07:26:50.355Z,2.78
2023-05-15T07:29:41.429Z,2.90
2023-05-15T07:32:26.775Z,3.03
2023-05-15T07:35:12.609Z,2.85
2023-05-15T07:37:56.680Z,3.08
2023-05-15T07:40:40.763Z,2.78
2023-05-15T07:43:24.763Z,2.60
2023-05-15T07:46:08.709Z,2.83
2023-05-15T07:48:54.787Z,2.88
2023-05-15T07:51:38.814Z,2.85
2023-05-15T07:54:22.837Z,2.55
2023-05-15T07:57:07.241Z,2.60
2023-05-15T07:59:51.306Z,2.70
2023-05-15T08:02:35.283Z,2.67
2023-05-15T08:05:20.785Z,2.60
2023-05-15T08:08:04.964Z,2.30
2023-05-15T08:10:48.740Z,2.45
2023-05-15T08:13:33.010Z,2.33
2023-05-15T08:16:17.369Z,2.25
2023-05-15T08:19:04.941Z,2.50
2023-05-15T08:21:51.306Z,2.40
2023-05-15T08:24:36.090Z,2.22
2023-05-15T08:27:20.634Z,2.47
2023-05-15T08:30:05.376Z,2.70
2023-05-15T08:32:52.104Z,2.63
2023-05-15T08:35:36.501Z,2.50
2023-05-15T08:38:22.564Z,2.40
2023-05-15T08:41:12.440Z,2.40
2023-05-15T08:43:57.702Z,2.70
2023-05-15T08:46:42.316Z,2.55
2023-05-15T08:49:34.080Z,2.60
2023-05-15T08:52:18.770Z,2.40
2023-05-15T08:55:04.800Z,2.30
2023-05-15T08:57:50.786Z,3.03
2023-05-15T09:00:35.164Z,2.60
2023-05-15T09:03:20.081Z,2.40
2023-05-15T09:06:06.450Z,2.60
2023-05-15T09:08:52.611Z,2.22
2023-05-15T09:11:39.148Z,2.20
2023-05-15T09:14:23.338Z,2.60
2023-05-15T09:17:07.386Z,2.47
2023-05-15T09:19:51.520Z,2.65
2023-05-15T09:22:37.134Z,2.63
2023-05-15T09:25:34.636Z,2.28
2023-05-15T09:28:29.711Z,2.10
2023-05-15T09:31:13.931Z,2.50
2023-05-15T09:34:02.041Z,2.33
2023-05-15T09:36:46.004Z,2.38
2023-05-15T09:39:30.151Z,1.92
2023-05-15T09:42:15.897Z,2.67
2023-05-15T09:45:01.394Z,2.40
2023-05-15T09:47:51.520Z,2.30
2023-05-15T09:50:37.299Z,2.30
2023-05-15T09:53:23.586Z,2.50
2023-05-15T09:56:08.256Z,2.03
2023-05-15T09:58:56.202Z,2.67
2023-05-15T10:01:44.989Z,2.53
2023-05-15T10:04:35.951Z,2.40
2023-05-15T10:07:29.209Z,2.20
2023-05-15T10:10:13.918Z,2.30
2023-05-15T10:12:59.950Z,2.35
2023-05-15T10:15:45.979Z,2.28
2023-05-15T10:18:33.922Z,2.13
2023-05-15T10:21:20.807Z,2.45
2023-05-15T10:24:05.734Z,2.58
2023-05-15T10:26:50.834Z,2.33
2023-05-15T10:29:36.476Z,2.85
2023-05-15T10:32:21.491Z,2.40
2023-05-15T10:35:07.842Z,2.17
2023-05-15T10:37:51.863Z,2.22
2023-05-15T10:40:38.901Z,2.33
2023-05-15T10:43:23.960Z,2.40
2023-05-15T10:46:09.021Z,2.30
2023-05-15T10:48:53.512Z,2.28
2023-05-15T10:51:41.172Z,2.13
2023-05-15T10:54:25.731Z,2.20
2023-05-15T10:57:10.684Z,2.50
2023-05-15T10:59:54.813Z,2.63
2023-05-15T11:02:40.801Z,2.83
2023-05-15T11:05:25.969Z,2.13
2023-05-15T11:08:27.616Z,2.30
2023-05-15T11:11:50.249Z,2.53
2023-05-15T11:14:37.110Z,2.55
2023-05-15T11:17:22.562Z,2.20
2023-05-15T11:20:07.632Z,3.20
2023-05-15T11:23:00.433Z,2.47
2023-05-15T11:25:54.752Z,2.35
2023-05-15T11:28:47.323Z,2.60
2023-05-15T11:31:31.925Z,2.08
2023-05-15T11:34:16.365Z,3.22
2023-05-15T11:37:01.406Z,2.45
2023-05-15T11:39:47.696Z,2.67
2023-05-15T11:42:33.610Z,2.47
2023-05-15T11:45:18.062Z,2.17
2023-05-15T11:48:03.917Z,2.47
2023-05-15T11:50:48.336Z,2.25
2023-05-15T11:53:34.053Z,2.50
2023-05-15T11:56:21.835Z,2.50
2023-05-15T11:59:07.654Z,2.33
2023-05-15T12:01:51.774Z,2.22
2023-05-15T12:04:36.107Z,2.60
2023-05-15T12:07:20.504Z,2.58
2023-05-15T12:10:04.869Z,2.60
2023-05-15T12:12:50.637Z,2.38
2023-05-15T12:15:39.190Z,2.50
2023-05-15T12:18:23.473Z,2.53
2023-05-15T12:21:07.778Z,2.83
2023-05-15T12:24:06.435Z,3.08
2023-05-15T12:26:52.070Z,2.42
2023-05-15T12:29:37.179Z,2.85
2023-05-15T12:32:23.037Z,2.70
2023-05-15T12:35:07.815Z,3.42
2023-05-15T12:37:52.164Z,2.42
2023-05-15T12:40:37.311Z,2.70
2023-05-15T12:43:21.990Z,2.80
2023-05-15T12:46:06.654Z,2.67
2023-05-15T12:48:53.090Z,2.67
2023-05-15T12:51:44.042Z,2.42
2023-05-15T12:54:28.152Z,2.97
2023-05-15T12:57:13.107Z,3.05
2023-05-15T12:59:57.503Z,2.78
2023-05-15T13:02:46.077Z,2.88
2023-05-15T13:05:34.406Z,3.05
2023-05-15T13:08:19.642Z,3.08
2023-05-15T13:11:03.879Z,3.00
2023-05-15T13:13:49.383Z,3.45
2023-05-15T13:16:33.576Z,3.72
2023-05-15T13:19:17.930Z,2.85
2023-05-15T13:22:03.494Z,2.63
2023-05-15T13:24:47.492Z,2.53
2023-05-15T13:27:31.514Z,2.85
2023-05-15T13:30:16.158Z,3.10
2023-05-15T13:33:01.228Z,3.00
2023-05-15T13:35:45.308Z,2.90
2023-05-15T13:38:31.356Z,2.97
2023-05-15T13:41:15.332Z,2.80
2023-05-15T13:43:59.313Z,2.65
2023-05-15T13:46:43.367Z,2.88
2023-05-15T13:49:27.286Z,3.05
2023-05-15T13:52:11.215Z,2.95
2023-05-15T13:54:56.796Z,2.85
2023-05-15T13:57:42.391Z,2.60
2023-05-15T14:00:26.651Z,2.63
2023-05-15T14:03:12.735Z,2.85
2023-05-15T14:05:58.811Z,2.67
2023-05-15T14:08:42.646Z,2.75
2023-05-15T14:11:28.027Z,2.90
2023-05-15T14:14:11.797Z,3.00
2023-05-15T14:16:55.610Z,2.97
2023-05-15T14:19:39.720Z,3.03
2023-05-15T14:22:29.311Z,2.70
2023-05-15T14:25:13.220Z,2.50
2023-05-15T14:27:58.480Z,3.47
2023-05-15T14:30:42.293Z,3.47
2023-05-15T14:33:26.761Z,4.13
2023-05-15T14:36:10.717Z,5.13
2023-05-15T14:38:54.495Z,3.35
2023-05-15T14:41:38.354Z,3.60
2023-05-15T14:44:23.701Z,3.33
2023-05-15T14:47:09.072Z,3.50
2023-05-15T14:49:52.948Z,4.75
2023-05-15T14:52:37.008Z,4.00
2023-05-15T14:55:22.249Z,3.10
2023-05-15T14:58:07.096Z,3.10
2023-05-15T15:00:52.588Z,3.70
2023-05-15T15:03:36.760Z,3.13
2023-05-15T15:06:20.817Z,2.53
2023-05-15T15:09:04.980Z,2.75
2023-05-15T15:11:49.037Z,3.20
2023-05-15T15:14:33.323Z,3.15
2023-05-15T15:17:18.957Z,3.28
2023-05-15T15:20:05.487Z,3.30
2023-05-15T15:22:49.608Z,3.28
2023-05-15T15:25:34.718Z,2.80
2023-05-15T15:28:18.747Z,3.33
2023-05-15T15:31:02.653Z,3.17
2023-05-15T15:33:48.163Z,3.47
2023-05-15T15:36:32.670Z,3.67
2023-05-15T15:39:16.501Z,3.05
2023-05-15T15:42:00.382Z,3.30
2023-05-15T15:44:44.504Z,3.58
2023-05-15T15:47:29.632Z,3.50
2023-05-15T15:50:14.928Z,3.22
2023-05-15T15:52:58.767Z,3.75
2023-05-15T15:55:43.478Z,4.30
2023-05-15T15:58:28.699Z,3.05
2023-05-15T16:01:12.569Z,3.28
2023-05-15T16:03:56.401Z,3.67
2023-05-15T16:06:41.576Z,3.15
2023-05-15T16:09:25.531Z,3.72
2023-05-15T16:12:09.901Z,3.67
2023-05-15T16:14:54.400Z,3.55
2023-05-15T16:17:39.070Z,4.50
2023-05-15T16:20:22.906Z,3.40
2023-05-15T16:23:09.593Z,3.35
2023-05-15T16:25:53.522Z,4.15
2023-05-15T16:28:37.359Z,3.97
2023-05-15T16:31:21.559Z,5.57
2023-05-15T16:34:05.722Z,6.00
2023-05-15T16:36:49.598Z,4.55
2023-05-15T16:39:38.740Z,4.22
2023-05-15T16:42:22.745Z,4.13
2023-05-15T16:45:07.890Z,4.00
2023-05-15T16:47:51.885Z,4.93
2023-05-15T16:50:37.400Z,4.18
2023-05-15T16:53:21.846Z,4.35
2023-05-15T16:56:08.072Z,4.47
2023-05-15T16:58:53.047Z,4.40
2023-05-15T17:01:36.959Z,4.70
2023-05-15T17:04:20.896Z,4.18
2023-05-15T17:07:05.524Z,4.10
2023-05-15T17:09:49.343Z,4.15
2023-05-15T17:12:35.052Z,4.22
2023-05-15T17:15:19.141Z,4.72
2023-05-15T17:18:03.075Z,4.88
2023-05-15T17:20:46.872Z,3.78
2023-05-15T17:23:30.690Z,4.45
2023-05-15T17:26:14.806Z,4.20
2023-05-15T17:28:59.975Z,4.85
2023-05-15T17:31:43.838Z,4.38
2023-05-15T17:34:28.011Z,4.25
2023-05-15T17:37:12.500Z,3.90
2023-05-15T17:39:56.543Z,3.83
2023-05-15T17:42:40.480Z,4.30
2023-05-15T17:45:27.090Z,4.15
2023-05-15T17:48:11.383Z,3.75
2023-05-15T17:50:55.531Z,3.95
2023-05-15T17:53:39.641Z,3.88
2023-05-15T17:56:23.831Z,4.00
2023-05-15T17:59:07.700Z,3.42
2023-05-15T18:01:53.112Z,3.90
2023-05-15T18:04:37.079Z,3.80
2023-05-15T18:07:21.311Z,3.67
2023-05-15T18:10:06.617Z,3.47
2023-05-15T18:12:50.855Z,3.63
2023-05-15T18:15:35.310Z,3.78
2023-05-15T18:18:20.616Z,3.65
2023-05-15T18:21:05.554Z,3.30
2023-05-15T18:23:49.581Z,4.10
2023-05-15T18:26:33.641Z,3.80
2023-05-15T18:29:17.693Z,3.47
2023-05-15T18:32:01.826Z,3.35
2023-05-15T18:34:47.911Z,3.95
2023-05-15T18:37:31.967Z,3.47
2023-05-15T18:40:16.242Z,3.63
2023-05-15T18:43:00.244Z,3.60
2023-05-15T18:45:44.042Z,4.15
2023-05-15T18:48:27.950Z,4.30
2023-05-15T18:51:14.361Z,3.92
2023-05-15T18:53:58.476Z,3.60
2023-05-15T18:56:43.250Z,4.15
2023-05-15T18:59:27.737Z,3.47
2023-05-15T19:02:11.727Z,4.15
2023-05-15T19:04:55.663Z,3.80
2023-05-15T19:07:42.744Z,3.65
2023-05-15T19:10:29.286Z,4.15
2023-05-15T19:13:13.253Z,4.30
2023-05-15T19:15:57.271Z,4.22
2023-05-15T19:18:41.171Z,4.95
2023-05-15T19:21:25.095Z,4.13
2023-05-15T19:24:10.689Z,4.15
2023-05-15T19:26:55.197Z,4.23
2023-05-15T19:29:40.021Z,4.85
2023-05-15T19:32:25.149Z,4.17
2023-05-15T19:35:10.097Z,4.90
2023-05-15T19:37:54.135Z,3.90
2023-05-15T19:40:39.457Z,4.70
2023-05-15T19:43:23.318Z,4.73
2023-05-15T19:46:07.857Z,4.63
2023-05-15T19:48:51.982Z,5.20
2023-05-15T19:51:35.949Z,4.53
2023-05-15T19:54:19.886Z,4.90
2023-05-15T19:57:05.596Z,4.80
2023-05-15T19:59:49.662Z,5.07
2023-05-15T20:02:33.641Z,5.27
2023-05-15T20:05:17.709Z,5.27
2023-05-15T20:08:01.539Z,5.38
2023-05-15T20:10:45.851Z,5.47
2023-05-15T20:13:31.469Z,5.23
2023-05-15T20:16:16.696Z,5.57
2023-05-15T20:19:00.675Z,5.40
2023-05-15T20:21:44.492Z,5.27
2023-05-15T20:24:28.384Z,5.50
2023-05-15T20:27:12.401Z,5.93
2023-05-15T20:29:57.653Z,6.60
2023-05-15T20:32:41.677Z,6.13
2023-05-15T20:35:26.828Z,6.03
2023-05-15T20:38:11.937Z,5.67
2023-05-15T20:40:56.859Z,6.80
2023-05-15T20:43:40.688Z,5.93
2023-05-15T20:46:29.526Z,6.40
2023-05-15T20:49:13.666Z,5.40
2023-05-15T20:51:57.636Z,6.00
2023-05-15T20:54:41.535Z,6.07
2023-05-15T20:57:25.333Z,6.37
2023-05-15T21:00:10.670Z,5.80
2023-05-15T21:02:55.979Z,6.23
2023-05-15T21:05:39.885Z,5.80
2023-05-15T21:08:24.132Z,6.80
2023-05-15T21:11:08.091Z,6.53
2023-05-15T21:13:52.124Z,6.73
2023-05-15T21:16:36.542Z,7.43
2023-05-15T21:19:21.920Z,6.40
2023-05-15T21:22:06.240Z,7.13
2023-05-15T21:24:49.997Z,6.20
2023-05-15T21:27:33.949Z,6.37
2023-05-15T21:30:17.949Z,6.80
2023-05-15T21:33:01.967Z,6.60
2023-05-15T21:35:47.552Z,6.90
2023-05-15T21:38:32.861Z,6.63
2023-05-15T21:41:16.994Z,6.57
2023-05-15T21:44:01.005Z,6.93
2023-05-15T21:46:44.850Z,6.50
2023-05-15T21:49:28.837Z,7.87
2023-05-15T21:52:14.089Z,7.33
2023-05-15T21:54:57.895Z,7.03
2023-05-15T21:57:41.806Z,7.80
2023-05-15T22:00:25.982Z,6.77
2023-05-15T22:03:10.078Z,8.27
2023-05-15T22:05:54.075Z,10.10
2023-05-15T22:08:39.283Z,7.77
2023-05-15T22:11:23.676Z,7.80
2023-05-15T22:14:07.765Z,7.07
2023-05-15T22:16:51.696Z,6.90
2023-05-15T22:19:35.768Z,7.57
2023-05-15T22:22:19.751Z,8.70
2023-05-15T22:25:05.445Z,9.47
2023-05-15T22:27:49.529Z,7.70
2023-05-15T22:30:33.295Z,7.23
2023-05-15T22:33:17.064Z,6.67
2023-05-15T22:36:02.305Z,6.97
2023-05-15T22:38:46.149Z,7.27
2023-05-15T22:41:34.428Z,7.23
2023-05-15T22:44:18.302Z,6.80
2023-05-15T22:47:02.198Z,6.23
2023-05-15T22:49:46.090Z,6.57
2023-05-15T22:52:29.931Z,7.13
2023-05-15T22:55:14.047Z,6.80
2023-05-15T22:57:59.462Z,6.70
2023-05-15T23:00:43.616Z,8.10
2023-05-15T23:03:27.723Z,8.07
2023-05-15T23:06:17.261Z,8.17
2023-05-15T23:09:01.924Z,7.70
2023-05-15T23:11:45.977Z,7.80
2023-05-15T23:14:31.366Z,7.07
2023-05-15T23:17:15.651Z,7.43
2023-05-15T23:19:59.704Z,7.07
2023-05-15T23:22:43.710Z,7.03
2023-05-15T23:25:27.731Z,7.60
2023-05-15T23:28:11.825Z,7.37
2023-05-15T23:30:57.482Z,6.93
2023-05-15T23:33:41.691Z,7.27
2023-05-15T23:36:25.777Z,7.60
2023-05-15T23:39:09.839Z,7.47
2023-05-15T23:41:53.817Z,7.30
2023-05-15T23:44:37.893Z,7.43
2023-05-15T23:47:23.368Z,7.27
2023-05-15T23:50:09.219Z,7.00
2023-05-15T23:52:53.113Z,7.60
2023-05-15T23:55:37.177Z,7.30
2023-05-15T23:58:21.610Z,6.20
